sensor_id;sensor_type;location;lat;lon;timestamp;P1;durP1;ratioP1;P2;durP2;ratioP2
67456;SDS011;54319;52.038;4.640;2023-06-22T00:00:49;23.88;;;12.25;;
67456;SDS011;54319;52.038;4.640;2023-06-22T00:03:17;18.13;;;12.60;;
67456;SDS011;54319;52.038;4.640;2023-06-22T00:05:44;19.58;;;12.32;;
67456;SDS011;54319;52.038;4.640;2023-06-22T00:08:13;20.52;;;12.07;;
67456;SDS011;54319;52.038;4.640;2023-06-22T00:10:40;18.67;;;12.52;;
67456;SDS011;54319;52.038;4.640;2023-06-22T00:13:07;18.40;;;11.93;;
67456;SDS011;54319;52.038;4.640;2023-06-22T00:15:35;23.67;;;12.90;;
67456;SDS011;54319;52.038;4.640;2023-06-22T00:18:03;21.35;;;11.85;;
67456;SDS011;54319;52.038;4.640;2023-06-22T00:20:30;20.83;;;12.32;;
67456;SDS011;54319;52.038;4.640;2023-06-22T00:23:02;19.77;;;12.25;;
67456;SDS011;54319;52.038;4.640;2023-06-22T00:25:34;24.40;;;13.48;;
67456;SDS011;54319;52.038;4.640;2023-06-22T00:28:01;26.25;;;14.40;;
67456;SDS011;54319;52.038;4.640;2023-06-22T00:30:28;26.40;;;14.23;;
67456;SDS011;54319;52.038;4.640;2023-06-22T00:32:54;21.92;;;14.13;;
67456;SDS011;54319;52.038;4.640;2023-06-22T00:35:21;24.15;;;14.65;;
67456;SDS011;54319;52.038;4.640;2023-06-22T00:37:48;28.30;;;15.32;;
67456;SDS011;54319;52.038;4.640;2023-06-22T00:40:16;25.58;;;14.68;;
67456;SDS011;54319;52.038;4.640;2023-06-22T00:42:48;24.05;;;15.57;;
67456;SDS011;54319;52.038;4.640;2023-06-22T00:45:14;30.15;;;16.05;;
67456;SDS011;54319;52.038;4.640;2023-06-22T00:47:41;28.00;;;16.42;;
67456;SDS011;54319;52.038;4.640;2023-06-22T00:50:08;27.67;;;16.90;;
67456;SDS011;54319;52.038;4.640;2023-06-22T00:52:45;25.88;;;15.70;;
67456;SDS011;54319;52.038;4.640;2023-06-22T00:55:14;28.67;;;16.63;;
67456;SDS011;54319;52.038;4.640;2023-06-22T00:57:43;27.40;;;16.17;;
67456;SDS011;54319;52.038;4.640;2023-06-22T01:00:13;24.30;;;15.90;;
67456;SDS011;54319;52.038;4.640;2023-06-22T01:02:45;26.77;;;14.88;;
67456;SDS011;54319;52.038;4.640;2023-06-22T01:05:17;25.52;;;15.18;;
67456;SDS011;54319;52.038;4.640;2023-06-22T01:07:46;25.23;;;15.00;;
67456;SDS011;54319;52.038;4.640;2023-06-22T01:10:23;29.92;;;15.00;;
67456;SDS011;54319;52.038;4.640;2023-06-22T01:12:57;22.92;;;13.85;;
67456;SDS011;54319;52.038;4.640;2023-06-22T01:15:31;22.67;;;14.15;;
67456;SDS011;54319;52.038;4.640;2023-06-22T01:18:03;25.92;;;14.48;;
67456;SDS011;54319;52.038;4.640;2023-06-22T01:20:30;25.27;;;13.75;;
67456;SDS011;54319;52.038;4.640;2023-06-22T01:23:07;22.73;;;14.10;;
67456;SDS011;54319;52.038;4.640;2023-06-22T01:25:43;22.52;;;13.73;;
67456;SDS011;54319;52.038;4.640;2023-06-22T01:28:17;24.00;;;13.85;;
67456;SDS011;54319;52.038;4.640;2023-06-22T01:30:53;23.27;;;13.63;;
67456;SDS011;54319;52.038;4.640;2023-06-22T01:33:31;24.15;;;14.02;;
67456;SDS011;54319;52.038;4.640;2023-06-22T01:36:00;24.65;;;14.35;;
67456;SDS011;54319;52.038;4.640;2023-06-22T01:38:28;22.90;;;13.85;;
67456;SDS011;54319;52.038;4.640;2023-06-22T01:40:56;24.13;;;14.02;;
67456;SDS011;54319;52.038;4.640;2023-06-22T01:43:24;21.10;;;13.40;;
67456;SDS011;54319;52.038;4.640;2023-06-22T01:45:54;23.20;;;13.93;;
67456;SDS011;54319;52.038;4.640;2023-06-22T01:48:22;21.80;;;12.85;;
67456;SDS011;54319;52.038;4.640;2023-06-22T01:50:51;20.50;;;13.07;;
67456;SDS011;54319;52.038;4.640;2023-06-22T01:53:18;20.02;;;12.75;;
67456;SDS011;54319;52.038;4.640;2023-06-22T01:55:44;22.57;;;13.00;;
67456;SDS011;54319;52.038;4.640;2023-06-22T01:58:11;25.98;;;14.52;;
67456;SDS011;54319;52.038;4.640;2023-06-22T02:00:39;22.40;;;13.75;;
67456;SDS011;54319;52.038;4.640;2023-06-22T02:03:13;23.90;;;14.02;;
67456;SDS011;54319;52.038;4.640;2023-06-22T02:05:45;23.40;;;13.95;;
67456;SDS011;54319;52.038;4.640;2023-06-22T02:08:15;26.05;;;14.35;;
67456;SDS011;54319;52.038;4.640;2023-06-22T02:10:46;24.63;;;13.68;;
67456;SDS011;54319;52.038;4.640;2023-06-22T02:13:14;25.85;;;14.07;;
67456;SDS011;54319;52.038;4.640;2023-06-22T02:15:42;24.80;;;14.07;;
67456;SDS011;54319;52.038;4.640;2023-06-22T02:18:09;22.20;;;13.68;;
67456;SDS011;54319;52.038;4.640;2023-06-22T02:20:38;20.67;;;12.85;;
67456;SDS011;54319;52.038;4.640;2023-06-22T02:23:05;26.73;;;14.57;;
67456;SDS011;54319;52.038;4.640;2023-06-22T02:25:33;22.45;;;13.63;;
67456;SDS011;54319;52.038;4.640;2023-06-22T02:28:00;22.67;;;13.35;;
67456;SDS011;54319;52.038;4.640;2023-06-22T02:30:27;25.75;;;16.10;;
67456;SDS011;54319;52.038;4.640;2023-06-22T02:32:53;26.10;;;15.83;;
67456;SDS011;54319;52.038;4.640;2023-06-22T02:35:23;29.08;;;16.08;;
67456;SDS011;54319;52.038;4.640;2023-06-22T02:37:52;28.23;;;15.43;;
67456;SDS011;54319;52.038;4.640;2023-06-22T02:40:19;24.45;;;14.48;;
67456;SDS011;54319;52.038;4.640;2023-06-22T02:42:46;28.85;;;16.02;;
67456;SDS011;54319;52.038;4.640;2023-06-22T02:45:12;24.85;;;15.50;;
67456;SDS011;54319;52.038;4.640;2023-06-22T02:47:39;28.55;;;16.40;;
67456;SDS011;54319;52.038;4.640;2023-06-22T02:50:06;27.80;;;16.88;;
67456;SDS011;54319;52.038;4.640;2023-06-22T02:52:33;25.13;;;15.70;;
67456;SDS011;54319;52.038;4.640;2023-06-22T02:55:01;31.25;;;15.75;;
67456;SDS011;54319;52.038;4.640;2023-06-22T02:57:28;27.50;;;16.00;;
67456;SDS011;54319;52.038;4.640;2023-06-22T02:59:55;27.27;;;15.95;;
67456;SDS011;54319;52.038;4.640;2023-06-22T03:02:22;28.35;;;15.30;;
67456;SDS011;54319;52.038;4.640;2023-06-22T03:04:48;26.43;;;16.30;;
67456;SDS011;54319;52.038;4.640;2023-06-22T03:07:15;27.43;;;16.97;;
67456;SDS011;54319;52.038;4.640;2023-06-22T03:09:42;28.95;;;17.15;;
67456;SDS011;54319;52.038;4.640;2023-06-22T03:12:10;26.77;;;17.13;;
67456;SDS011;54319;52.038;4.640;2023-06-22T03:14:37;28.75;;;16.85;;
67456;SDS011;54319;52.038;4.640;2023-06-22T03:17:04;31.55;;;16.92;;
67456;SDS011;54319;52.038;4.640;2023-06-22T03:19:31;27.02;;;16.42;;
67456;SDS011;54319;52.038;4.640;2023-06-22T03:21:59;29.08;;;17.02;;
67456;SDS011;54319;52.038;4.640;2023-06-22T03:24:26;28.73;;;17.35;;
67456;SDS011;54319;52.038;4.640;2023-06-22T03:26:54;31.25;;;17.50;;
67456;SDS011;54319;52.038;4.640;2023-06-22T03:29:23;34.15;;;18.20;;
67456;SDS011;54319;52.038;4.640;2023-06-22T03:31:50;26.45;;;17.52;;
67456;SDS011;54319;52.038;4.640;2023-06-22T03:34:17;29.85;;;18.27;;
67456;SDS011;54319;52.038;4.640;2023-06-22T03:36:44;33.95;;;17.73;;
67456;SDS011;54319;52.038;4.640;2023-06-22T03:41:38;29.52;;;17.02;;
67456;SDS011;54319;52.038;4.640;2023-06-22T03:44:04;31.35;;;17.70;;
67456;SDS011;54319;52.038;4.640;2023-06-22T03:46:32;34.83;;;18.43;;
67456;SDS011;54319;52.038;4.640;2023-06-22T03:48:59;32.60;;;18.02;;
67456;SDS011;54319;52.038;4.640;2023-06-22T03:53:53;36.35;;;19.35;;
67456;SDS011;54319;52.038;4.640;2023-06-22T03:56:19;35.20;;;20.37;;
67456;SDS011;54319;52.038;4.640;2023-06-22T03:58:46;37.45;;;21.45;;
67456;SDS011;54319;52.038;4.640;2023-06-22T04:01:12;34.95;;;20.50;;
67456;SDS011;54319;52.038;4.640;2023-06-22T04:03:41;46.03;;;22.10;;
67456;SDS011;54319;52.038;4.640;2023-06-22T04:06:07;37.20;;;21.75;;
67456;SDS011;54319;52.038;4.640;2023-06-22T04:08:34;41.28;;;22.17;;
67456;SDS011;54319;52.038;4.640;2023-06-22T04:11:01;42.85;;;23.25;;
67456;SDS011;54319;52.038;4.640;2023-06-22T04:13:28;38.17;;;23.13;;
67456;SDS011;54319;52.038;4.640;2023-06-22T04:15:54;41.03;;;23.47;;
67456;SDS011;54319;52.038;4.640;2023-06-22T04:18:21;42.27;;;24.03;;
67456;SDS011;54319;52.038;4.640;2023-06-22T04:20:49;39.72;;;22.10;;
67456;SDS011;54319;52.038;4.640;2023-06-22T04:23:16;36.53;;;21.20;;
67456;SDS011;54319;52.038;4.640;2023-06-22T04:25:42;34.35;;;20.67;;
67456;SDS011;54319;52.038;4.640;2023-06-22T04:28:09;38.08;;;21.25;;
67456;SDS011;54319;52.038;4.640;2023-06-22T04:30:37;39.53;;;21.98;;
67456;SDS011;54319;52.038;4.640;2023-06-22T04:33:11;35.53;;;20.70;;
67456;SDS011;54319;52.038;4.640;2023-06-22T04:35:38;38.03;;;20.23;;
67456;SDS011;54319;52.038;4.640;2023-06-22T04:38:07;31.98;;;20.05;;
67456;SDS011;54319;52.038;4.640;2023-06-22T04:40:35;36.20;;;20.58;;
67456;SDS011;54319;52.038;4.640;2023-06-22T04:43:02;38.53;;;21.65;;
67456;SDS011;54319;52.038;4.640;2023-06-22T04:45:28;34.47;;;19.73;;
67456;SDS011;54319;52.038;4.640;2023-06-22T04:47:55;36.63;;;19.92;;
67456;SDS011;54319;52.038;4.640;2023-06-22T04:50:22;34.95;;;19.35;;
67456;SDS011;54319;52.038;4.640;2023-06-22T04:52:49;35.70;;;19.33;;
67456;SDS011;54319;52.038;4.640;2023-06-22T04:55:17;33.35;;;19.55;;
67456;SDS011;54319;52.038;4.640;2023-06-22T04:57:46;31.52;;;19.55;;
67456;SDS011;54319;52.038;4.640;2023-06-22T05:00:14;29.75;;;19.20;;
67456;SDS011;54319;52.038;4.640;2023-06-22T05:02:43;32.25;;;19.73;;
67456;SDS011;54319;52.038;4.640;2023-06-22T05:05:10;32.83;;;19.08;;
67456;SDS011;54319;52.038;4.640;2023-06-22T05:07:39;32.60;;;18.08;;
67456;SDS011;54319;52.038;4.640;2023-06-22T05:10:08;30.05;;;17.63;;
67456;SDS011;54319;52.038;4.640;2023-06-22T05:12:36;31.40;;;17.00;;
67456;SDS011;54319;52.038;4.640;2023-06-22T05:15:04;29.77;;;17.13;;
67456;SDS011;54319;52.038;4.640;2023-06-22T05:17:31;30.30;;;17.00;;
67456;SDS011;54319;52.038;4.640;2023-06-22T05:19:57;27.17;;;16.67;;
67456;SDS011;54319;52.038;4.640;2023-06-22T05:22:24;28.00;;;15.95;;
67456;SDS011;54319;52.038;4.640;2023-06-22T05:24:51;26.48;;;15.82;;
67456;SDS011;54319;52.038;4.640;2023-06-22T05:27:17;24.58;;;14.80;;
67456;SDS011;54319;52.038;4.640;2023-06-22T05:29:45;25.05;;;15.00;;
67456;SDS011;54319;52.038;4.640;2023-06-22T05:32:12;24.75;;;15.15;;
67456;SDS011;54319;52.038;4.640;2023-06-22T05:34:38;28.63;;;15.07;;
67456;SDS011;54319;52.038;4.640;2023-06-22T05:37:08;25.30;;;14.23;;
67456;SDS011;54319;52.038;4.640;2023-06-22T05:42:03;24.00;;;13.68;;
67456;SDS011;54319;52.038;4.640;2023-06-22T05:44:31;22.92;;;13.57;;
67456;SDS011;54319;52.038;4.640;2023-06-22T05:47:00;21.13;;;13.52;;
67456;SDS011;54319;52.038;4.640;2023-06-22T05:49:26;21.55;;;13.77;;
67456;SDS011;54319;52.038;4.640;2023-06-22T05:51:54;21.23;;;13.05;;
67456;SDS011;54319;52.038;4.640;2023-06-22T05:54:21;24.00;;;13.70;;
67456;SDS011;54319;52.038;4.640;2023-06-22T05:56:48;23.08;;;14.15;;
67456;SDS011;54319;52.038;4.640;2023-06-22T05:59:14;19.33;;;12.95;;
67456;SDS011;54319;52.038;4.640;2023-06-22T06:01:41;22.52;;;13.38;;
67456;SDS011;54319;52.038;4.640;2023-06-22T06:04:09;21.00;;;13.07;;
67456;SDS011;54319;52.038;4.640;2023-06-22T06:06:36;24.20;;;13.50;;
67456;SDS011;54319;52.038;4.640;2023-06-22T06:09:03;22.52;;;13.43;;
67456;SDS011;54319;52.038;4.640;2023-06-22T06:11:30;19.92;;;12.05;;
67456;SDS011;54319;52.038;4.640;2023-06-22T06:13:56;18.50;;;12.75;;
67456;SDS011;54319;52.038;4.640;2023-06-22T06:16:23;21.77;;;12.07;;
67456;SDS011;54319;52.038;4.640;2023-06-22T06:18:50;20.58;;;12.43;;
67456;SDS011;54319;52.038;4.640;2023-06-22T06:21:19;19.02;;;12.25;;
67456;SDS011;54319;52.038;4.640;2023-06-22T06:23:46;20.45;;;12.10;;
67456;SDS011;54319;52.038;4.640;2023-06-22T06:26:13;19.55;;;12.73;;
67456;SDS011;54319;52.038;4.640;2023-06-22T06:28:41;16.95;;;11.20;;
67456;SDS011;54319;52.038;4.640;2023-06-22T06:31:08;19.90;;;11.63;;
67456;SDS011;54319;52.038;4.640;2023-06-22T06:33:37;18.60;;;12.02;;
67456;SDS011;54319;52.038;4.640;2023-06-22T06:36:03;19.13;;;12.10;;
67456;SDS011;54319;52.038;4.640;2023-06-22T06:38:32;15.95;;;11.00;;
67456;SDS011;54319;52.038;4.640;2023-06-22T06:40:58;17.70;;;10.48;;
67456;SDS011;54319;52.038;4.640;2023-06-22T06:43:25;17.40;;;10.30;;
67456;SDS011;54319;52.038;4.640;2023-06-22T06:45:51;18.33;;;10.95;;
67456;SDS011;54319;52.038;4.640;2023-06-22T06:48:18;17.35;;;10.25;;
67456;SDS011;54319;52.038;4.640;2023-06-22T06:50:45;16.70;;;10.40;;
67456;SDS011;54319;52.038;4.640;2023-06-22T06:53:11;15.55;;;9.70;;
67456;SDS011;54319;52.038;4.640;2023-06-22T06:55:40;17.95;;;9.25;;
67456;SDS011;54319;52.038;4.640;2023-06-22T06:58:06;14.43;;;9.60;;
67456;SDS011;54319;52.038;4.640;2023-06-22T07:00:34;17.23;;;10.50;;
67456;SDS011;54319;52.038;4.640;2023-06-22T07:03:05;13.88;;;8.65;;
67456;SDS011;54319;52.038;4.640;2023-06-22T07:05:32;13.95;;;8.88;;
67456;SDS011;54319;52.038;4.640;2023-06-22T07:07:58;14.32;;;8.20;;
67456;SDS011;54319;52.038;4.640;2023-06-22T07:10:25;13.57;;;8.63;;
67456;SDS011;54319;52.038;4.640;2023-06-22T07:12:53;11.13;;;8.05;;
67456;SDS011;54319;52.038;4.640;2023-06-22T07:15:22;11.07;;;8.02;;
67456;SDS011;54319;52.038;4.640;2023-06-22T07:17:48;11.30;;;7.50;;
67456;SDS011;54319;52.038;4.640;2023-06-22T07:20:15;8.05;;;6.47;;
67456;SDS011;54319;52.038;4.640;2023-06-22T07:22:42;8.50;;;6.18;;
67456;SDS011;54319;52.038;4.640;2023-06-22T07:25:10;9.88;;;6.15;;
67456;SDS011;54319;52.038;4.640;2023-06-22T07:27:39;8.50;;;5.90;;
67456;SDS011;54319;52.038;4.640;2023-06-22T07:30:12;8.18;;;5.88;;
67456;SDS011;54319;52.038;4.640;2023-06-22T07:32:39;8.57;;;5.78;;
67456;SDS011;54319;52.038;4.640;2023-06-22T07:35:06;6.25;;;4.65;;
67456;SDS011;54319;52.038;4.640;2023-06-22T07:37:33;8.43;;;5.05;;
67456;SDS011;54319;52.038;4.640;2023-06-22T07:42:29;7.53;;;4.97;;
67456;SDS011;54319;52.038;4.640;2023-06-22T07:44:57;6.35;;;4.40;;
67456;SDS011;54319;52.038;4.640;2023-06-22T07:47:25;9.32;;;4.60;;
67456;SDS011;54319;52.038;4.640;2023-06-22T07:49:53;8.48;;;4.20;;
67456;SDS011;54319;52.038;4.640;2023-06-22T07:52:22;7.00;;;4.55;;
67456;SDS011;54319;52.038;4.640;2023-06-22T07:57:16;6.70;;;3.58;;
67456;SDS011;54319;52.038;4.640;2023-06-22T07:59:43;5.25;;;3.53;;
67456;SDS011;54319;52.038;4.640;2023-06-22T08:02:10;5.05;;;3.33;;
67456;SDS011;54319;52.038;4.640;2023-06-22T08:04:38;5.78;;;3.88;;
67456;SDS011;54319;52.038;4.640;2023-06-22T08:07:06;8.70;;;3.75;;
67456;SDS011;54319;52.038;4.640;2023-06-22T08:09:32;6.13;;;3.85;;
67456;SDS011;54319;52.038;4.640;2023-06-22T08:14:26;7.38;;;4.07;;
67456;SDS011;54319;52.038;4.640;2023-06-22T08:16:53;5.82;;;3.90;;
67456;SDS011;54319;52.038;4.640;2023-06-22T08:19:20;9.45;;;5.45;;
67456;SDS011;54319;52.038;4.640;2023-06-22T08:24:14;8.55;;;5.45;;
67456;SDS011;54319;52.038;4.640;2023-06-22T08:26:41;9.45;;;6.28;;
67456;SDS011;54319;52.038;4.640;2023-06-22T08:29:08;10.55;;;6.75;;
67456;SDS011;54319;52.038;4.640;2023-06-22T08:31:35;9.60;;;6.45;;
67456;SDS011;54319;52.038;4.640;2023-06-22T08:38:56;11.30;;;7.05;;
67456;SDS011;54319;52.038;4.640;2023-06-22T08:41:27;10.38;;;7.30;;
67456;SDS011;54319;52.038;4.640;2023-06-22T08:43:54;11.63;;;7.32;;
67456;SDS011;54319;52.038;4.640;2023-06-22T08:48:55;9.75;;;7.57;;
67456;SDS011;54319;52.038;4.640;2023-06-22T08:51:22;13.18;;;8.90;;
67456;SDS011;54319;52.038;4.640;2023-06-22T08:58:43;13.65;;;7.82;;
67456;SDS011;54319;52.038;4.640;2023-06-22T09:01:09;11.52;;;8.10;;
67456;SDS011;54319;52.038;4.640;2023-06-22T09:08:29;11.70;;;8.10;;
67456;SDS011;54319;52.038;4.640;2023-06-22T09:15:50;11.27;;;7.90;;
67456;SDS011;54319;52.038;4.640;2023-06-22T09:18:17;11.13;;;7.72;;
67456;SDS011;54319;52.038;4.640;2023-06-22T09:23:11;11.27;;;7.85;;
67456;SDS011;54319;52.038;4.640;2023-06-22T09:25:38;10.35;;;7.30;;
67456;SDS011;54319;52.038;4.640;2023-06-22T09:28:05;10.10;;;7.25;;
67456;SDS011;54319;52.038;4.640;2023-06-22T09:30:33;11.32;;;6.30;;
67456;SDS011;54319;52.038;4.640;2023-06-22T09:32:59;9.18;;;7.10;;
67456;SDS011;54319;52.038;4.640;2023-06-22T09:35:27;14.88;;;7.22;;
67456;SDS011;54319;52.038;4.640;2023-06-22T09:37:53;9.90;;;7.63;;
67456;SDS011;54319;52.038;4.640;2023-06-22T09:40:20;11.57;;;7.25;;
67456;SDS011;54319;52.038;4.640;2023-06-22T09:42:47;10.45;;;7.82;;
67456;SDS011;54319;52.038;4.640;2023-06-22T09:45:13;12.93;;;8.32;;
67456;SDS011;54319;52.038;4.640;2023-06-22T09:47:41;11.13;;;8.02;;
67456;SDS011;54319;52.038;4.640;2023-06-22T09:50:08;10.35;;;7.90;;
67456;SDS011;54319;52.038;4.640;2023-06-22T09:52:35;9.90;;;7.38;;
67456;SDS011;54319;52.038;4.640;2023-06-22T09:55:02;10.52;;;6.07;;
67456;SDS011;54319;52.038;4.640;2023-06-22T09:57:29;11.48;;;7.82;;
67456;SDS011;54319;52.038;4.640;2023-06-22T09:59:56;9.45;;;7.30;;
67456;SDS011;54319;52.038;4.640;2023-06-22T10:02:23;12.68;;;7.43;;
67456;SDS011;54319;52.038;4.640;2023-06-22T10:04:51;8.75;;;6.97;;
67456;SDS011;54319;52.038;4.640;2023-06-22T10:07:19;9.35;;;6.85;;
67456;SDS011;54319;52.038;4.640;2023-06-22T10:09:46;7.88;;;6.05;;
67456;SDS011;54319;52.038;4.640;2023-06-22T10:12:12;14.45;;;7.03;;
67456;SDS011;54319;52.038;4.640;2023-06-22T10:17:05;11.73;;;6.93;;
67456;SDS011;54319;52.038;4.640;2023-06-22T10:19:33;11.82;;;7.88;;
67456;SDS011;54319;52.038;4.640;2023-06-22T10:22:03;11.45;;;7.22;;
67456;SDS011;54319;52.038;4.640;2023-06-22T10:24:30;9.52;;;6.85;;
67456;SDS011;54319;52.038;4.640;2023-06-22T10:26:57;11.35;;;7.63;;
67456;SDS011;54319;52.038;4.640;2023-06-22T10:29:24;9.93;;;6.03;;
67456;SDS011;54319;52.038;4.640;2023-06-22T10:31:50;10.20;;;6.93;;
67456;SDS011;54319;52.038;4.640;2023-06-22T10:34:17;9.07;;;7.53;;
67456;SDS011;54319;52.038;4.640;2023-06-22T10:36:44;11.50;;;7.47;;
67456;SDS011;54319;52.038;4.640;2023-06-22T10:39:14;10.63;;;7.55;;
67456;SDS011;54319;52.038;4.640;2023-06-22T10:41:41;11.15;;;7.03;;
67456;SDS011;54319;52.038;4.640;2023-06-22T10:44:08;10.50;;;7.07;;
67456;SDS011;54319;52.038;4.640;2023-06-22T10:46:34;13.32;;;7.30;;
67456;SDS011;54319;52.038;4.640;2023-06-22T10:49:01;8.80;;;6.03;;
67456;SDS011;54319;52.038;4.640;2023-06-22T10:51:28;7.38;;;5.70;;
67456;SDS011;54319;52.038;4.640;2023-06-22T10:53:56;8.50;;;5.95;;
67456;SDS011;54319;52.038;4.640;2023-06-22T10:56:24;12.15;;;6.57;;
67456;SDS011;54319;52.038;4.640;2023-06-22T10:58:50;8.18;;;6.00;;
67456;SDS011;54319;52.038;4.640;2023-06-22T11:01:17;10.88;;;6.53;;
67456;SDS011;54319;52.038;4.640;2023-06-22T11:03:44;9.45;;;6.43;;
67456;SDS011;54319;52.038;4.640;2023-06-22T11:06:10;11.15;;;6.13;;
67456;SDS011;54319;52.038;4.640;2023-06-22T11:08:37;11.23;;;8.20;;
67456;SDS011;54319;52.038;4.640;2023-06-22T11:11:03;10.52;;;5.80;;
67456;SDS011;54319;52.038;4.640;2023-06-22T11:13:31;8.95;;;5.50;;
67456;SDS011;54319;52.038;4.640;2023-06-22T11:15:58;7.60;;;5.60;;
67456;SDS011;54319;52.038;4.640;2023-06-22T11:18:25;7.68;;;5.35;;
67456;SDS011;54319;52.038;4.640;2023-06-22T11:20:51;7.10;;;5.20;;
67456;SDS011;54319;52.038;4.640;2023-06-22T11:23:18;7.72;;;5.35;;
67456;SDS011;54319;52.038;4.640;2023-06-22T11:25:45;10.00;;;5.80;;
67456;SDS011;54319;52.038;4.640;2023-06-22T11:28:11;9.20;;;5.60;;
67456;SDS011;54319;52.038;4.640;2023-06-22T11:30:39;8.60;;;5.63;;
67456;SDS011;54319;52.038;4.640;2023-06-22T11:33:06;7.22;;;5.47;;
67456;SDS011;54319;52.038;4.640;2023-06-22T11:35:33;13.32;;;6.72;;
67456;SDS011;54319;52.038;4.640;2023-06-22T11:37:59;11.15;;;7.30;;
67456;SDS011;54319;52.038;4.640;2023-06-22T11:40:26;10.70;;;7.20;;
67456;SDS011;54319;52.038;4.640;2023-06-22T11:42:52;13.80;;;7.63;;
67456;SDS011;54319;52.038;4.640;2023-06-22T11:45:19;9.32;;;7.88;;
67456;SDS011;54319;52.038;4.640;2023-06-22T11:47:47;14.15;;;8.93;;
67456;SDS011;54319;52.038;4.640;2023-06-22T11:50:14;13.88;;;8.65;;
67456;SDS011;54319;52.038;4.640;2023-06-22T11:52:41;10.90;;;8.20;;
67456;SDS011;54319;52.038;4.640;2023-06-22T11:55:07;12.10;;;8.55;;
67456;SDS011;54319;52.038;4.640;2023-06-22T11:57:35;13.43;;;9.13;;
67456;SDS011;54319;52.038;4.640;2023-06-22T12:00:03;11.30;;;8.30;;
67456;SDS011;54319;52.038;4.640;2023-06-22T12:05:08;14.57;;;8.73;;
67456;SDS011;54319;52.038;4.640;2023-06-22T12:07:34;15.40;;;8.68;;
67456;SDS011;54319;52.038;4.640;2023-06-22T12:10:01;12.35;;;8.73;;
67456;SDS011;54319;52.038;4.640;2023-06-22T12:12:27;11.82;;;8.77;;
67456;SDS011;54319;52.038;4.640;2023-06-22T12:14:54;12.70;;;9.55;;
67456;SDS011;54319;52.038;4.640;2023-06-22T12:17:28;16.83;;;9.50;;
67456;SDS011;54319;52.038;4.640;2023-06-22T12:19:55;13.43;;;10.82;;
67456;SDS011;54319;52.038;4.640;2023-06-22T12:22:23;14.13;;;10.45;;
67456;SDS011;54319;52.038;4.640;2023-06-22T12:24:49;15.45;;;10.50;;
67456;SDS011;54319;52.038;4.640;2023-06-22T12:27:16;15.20;;;11.30;;
67456;SDS011;54319;52.038;4.640;2023-06-22T12:29:45;16.42;;;11.50;;
67456;SDS011;54319;52.038;4.640;2023-06-22T12:32:12;16.70;;;11.93;;
67456;SDS011;54319;52.038;4.640;2023-06-22T12:34:39;16.23;;;11.93;;
67456;SDS011;54319;52.038;4.640;2023-06-22T12:42:00;22.95;;;12.80;;
67456;SDS011;54319;52.038;4.640;2023-06-22T12:46:54;20.45;;;12.52;;
67456;SDS011;54319;52.038;4.640;2023-06-22T12:49:20;18.52;;;12.95;;
67456;SDS011;54319;52.038;4.640;2023-06-22T12:51:47;17.75;;;12.25;;
67456;SDS011;54319;52.038;4.640;2023-06-22T12:54:14;20.05;;;12.15;;
67456;SDS011;54319;52.038;4.640;2023-06-22T12:56:42;17.98;;;11.75;;
67456;SDS011;54319;52.038;4.640;2023-06-22T12:59:10;16.33;;;11.23;;
67456;SDS011;54319;52.038;4.640;2023-06-22T13:01:36;22.45;;;12.73;;
67456;SDS011;54319;52.038;4.640;2023-06-22T13:04:03;16.33;;;11.95;;
67456;SDS011;54319;52.038;4.640;2023-06-22T13:06:30;19.23;;;11.48;;
67456;SDS011;54319;52.038;4.640;2023-06-22T13:08:57;18.35;;;12.45;;
67456;SDS011;54319;52.038;4.640;2023-06-22T13:11:23;16.30;;;12.40;;
67456;SDS011;54319;52.038;4.640;2023-06-22T13:13:51;19.13;;;12.85;;
67456;SDS011;54319;52.038;4.640;2023-06-22T13:16:18;18.70;;;12.32;;
67456;SDS011;54319;52.038;4.640;2023-06-22T13:18:44;17.02;;;12.02;;
67456;SDS011;54319;52.038;4.640;2023-06-22T13:21:11;16.63;;;11.57;;
67456;SDS011;54319;52.038;4.640;2023-06-22T13:23:38;13.50;;;11.05;;
67456;SDS011;54319;52.038;4.640;2023-06-22T13:26:05;14.90;;;10.88;;
67456;SDS011;54319;52.038;4.640;2023-06-22T13:28:32;18.70;;;11.50;;
67456;SDS011;54319;52.038;4.640;2023-06-22T13:31:00;14.80;;;11.27;;
67456;SDS011;54319;52.038;4.640;2023-06-22T13:33:26;16.77;;;11.40;;
67456;SDS011;54319;52.038;4.640;2023-06-22T13:35:53;14.88;;;10.70;;
67456;SDS011;54319;52.038;4.640;2023-06-22T13:38:19;19.20;;;11.73;;
67456;SDS011;54319;52.038;4.640;2023-06-22T13:40:47;14.13;;;11.07;;
67456;SDS011;54319;52.038;4.640;2023-06-22T13:43:14;16.17;;;11.45;;
67456;SDS011;54319;52.038;4.640;2023-06-22T13:48:09;16.15;;;11.10;;
67456;SDS011;54319;52.038;4.640;2023-06-22T13:50:36;17.40;;;12.05;;
67456;SDS011;54319;52.038;4.640;2023-06-22T13:53:02;18.20;;;12.65;;
67456;SDS011;54319;52.038;4.640;2023-06-22T13:55:29;17.70;;;12.95;;
67456;SDS011;54319;52.038;4.640;2023-06-22T13:57:56;20.25;;;13.65;;
67456;SDS011;54319;52.038;4.640;2023-06-22T14:00:22;21.10;;;13.45;;
67456;SDS011;54319;52.038;4.640;2023-06-22T14:02:49;15.68;;;12.52;;
67456;SDS011;54319;52.038;4.640;2023-06-22T14:07:44;16.40;;;12.07;;
67456;SDS011;54319;52.038;4.640;2023-06-22T14:12:37;15.57;;;12.52;;
67456;SDS011;54319;52.038;4.640;2023-06-22T14:15:05;14.65;;;12.15;;
67456;SDS011;54319;52.038;4.640;2023-06-22T14:17:32;18.25;;;12.73;;
67456;SDS011;54319;52.038;4.640;2023-06-22T14:19:59;17.20;;;13.25;;
67456;SDS011;54319;52.038;4.640;2023-06-22T14:22:27;17.42;;;13.20;;
67456;SDS011;54319;52.038;4.640;2023-06-22T14:24:54;17.92;;;13.38;;
67456;SDS011;54319;52.038;4.640;2023-06-22T14:27:22;15.95;;;13.05;;
67456;SDS011;54319;52.038;4.640;2023-06-22T14:29:49;17.92;;;13.55;;
67456;SDS011;54319;52.038;4.640;2023-06-22T14:32:16;14.13;;;12.43;;
67456;SDS011;54319;52.038;4.640;2023-06-22T14:34:42;15.75;;;12.30;;
67456;SDS011;54319;52.038;4.640;2023-06-22T14:37:09;15.10;;;11.63;;
67456;SDS011;54319;52.038;4.640;2023-06-22T14:39:39;15.55;;;10.68;;
67456;SDS011;54319;52.038;4.640;2023-06-22T14:42:05;12.98;;;9.80;;
67456;SDS011;54319;52.038;4.640;2023-06-22T14:44:32;11.45;;;8.35;;
67456;SDS011;54319;52.038;4.640;2023-06-22T14:46:59;11.20;;;8.02;;
67456;SDS011;54319;52.038;4.640;2023-06-22T14:49:25;9.90;;;7.28;;
67456;SDS011;54319;52.038;4.640;2023-06-22T14:51:52;8.82;;;6.82;;
67456;SDS011;54319;52.038;4.640;2023-06-22T14:54:19;10.93;;;6.80;;
67456;SDS011;54319;52.038;4.640;2023-06-22T14:56:47;11.00;;;6.78;;
67456;SDS011;54319;52.038;4.640;2023-06-22T14:59:13;8.75;;;6.53;;
67456;SDS011;54319;52.038;4.640;2023-06-22T15:01:40;11.32;;;7.20;;
67456;SDS011;54319;52.038;4.640;2023-06-22T15:04:07;9.85;;;6.97;;
67456;SDS011;54319;52.038;4.640;2023-06-22T15:06:33;8.48;;;6.30;;
67456;SDS011;54319;52.038;4.640;2023-06-22T15:09:00;8.75;;;6.47;;
67456;SDS011;54319;52.038;4.640;2023-06-22T15:11:26;8.60;;;6.70;;
67456;SDS011;54319;52.038;4.640;2023-06-22T15:13:57;8.18;;;5.88;;
67456;SDS011;54319;52.038;4.640;2023-06-22T15:16:25;8.52;;;6.70;;
67456;SDS011;54319;52.038;4.640;2023-06-22T15:18:52;9.32;;;6.13;;
67456;SDS011;54319;52.038;4.640;2023-06-22T15:21:18;9.07;;;6.45;;
67456;SDS011;54319;52.038;4.640;2023-06-22T15:23:45;12.07;;;6.93;;
67456;SDS011;54319;52.038;4.640;2023-06-22T15:26:12;7.68;;;6.38;;
67456;SDS011;54319;52.038;4.640;2023-06-22T15:28:39;9.32;;;7.07;;
67456;SDS011;54319;52.038;4.640;2023-06-22T15:31:07;10.23;;;7.30;;